sensor_id;sensor_type;location;lat;lon;timestamp;pressure;altitude;pressure_sealevel;temperature;humidity
69780;BME280;57052;55.602;38.096;2023-07-13T00:02:24;99382.28;;;15.93;62.44
69780;BME280;57052;55.602;38.096;2023-07-13T00:04:49;99380.34;;;15.94;62.42
69780;BME280;57052;55.602;38.096;2023-07-13T00:07:16;99377.97;;;15.92;62.36
69780;BME280;57052;55.602;38.096;2023-07-13T00:09:46;99376.22;;;15.88;62.25
69780;BME280;57052;55.602;38.096;2023-07-13T00:12:33;99385.97;;;15.89;63.19
69780;BME280;57052;55.602;38.096;2023-07-13T00:15:02;99386.94;;;15.93;62.58
69780;BME280;57052;55.602;38.096;2023-07-13T00:17:30;99385.03;;;15.85;62.46
69780;BME280;57052;55.602;38.096;2023-07-13T00:19:56;99386.78;;;15.81;61.97
69780;BME280;57052;55.602;38.096;2023-07-13T00:22:23;99373.50;;;15.71;62.56
69780;BME280;57052;55.602;38.096;2023-07-13T00:24:52;99385.50;;;15.78;62.44
69780;BME280;57052;55.602;38.096;2023-07-13T00:27:18;99381.84;;;15.74;62.41
69780;BME280;57052;55.602;38.096;2023-07-13T00:29:44;99374.16;;;15.59;62.44
69780;BME280;57052;55.602;38.096;2023-07-13T00:32:10;99382.00;;;15.61;62.54
69780;BME280;57052;55.602;38.096;2023-07-13T00:34:38;99391.81;;;15.62;62.61
69780;BME280;57052;55.602;38.096;2023-07-13T00:37:04;99381.06;;;15.57;62.33
69780;BME280;57052;55.602;38.096;2023-07-13T00:39:33;99388.44;;;15.65;62.85
69780;BME280;57052;55.602;38.096;2023-07-13T00:41:59;99395.19;;;15.67;62.45
69780;BME280;57052;55.602;38.096;2023-07-13T00:44:25;99381.19;;;15.69;62.62
69780;BME280;57052;55.602;38.096;2023-07-13T00:46:51;99391.00;;;15.70;62.65
69780;BME280;57052;55.602;38.096;2023-07-13T00:49:20;99385.69;;;15.73;62.91
69780;BME280;57052;55.602;38.096;2023-07-13T00:51:50;99386.66;;;15.69;62.89
69780;BME280;57052;55.602;38.096;2023-07-13T00:54:21;99385.84;;;15.68;62.81
69780;BME280;57052;55.602;38.096;2023-07-13T00:56:50;99391.34;;;15.60;62.96
69780;BME280;57052;55.602;38.096;2023-07-13T00:59:17;99394.19;;;15.63;62.81
69780;BME280;57052;55.602;38.096;2023-07-13T01:01:44;99380.75;;;15.50;62.98
69780;BME280;57052;55.602;38.096;2023-07-13T01:04:10;99361.63;;;15.41;63.03
69780;BME280;57052;55.602;38.096;2023-07-13T01:06:37;99385.88;;;15.60;62.85
69780;BME280;57052;55.602;38.096;2023-07-13T01:09:04;99384.09;;;15.64;63.05
69780;BME280;57052;55.602;38.096;2023-07-13T01:11:30;99391.47;;;15.63;63.05
69780;BME280;57052;55.602;38.096;2023-07-13T01:13:56;99377.88;;;15.55;62.94
69780;BME280;57052;55.602;38.096;2023-07-13T01:16:28;99386.84;;;15.55;63.68
69780;BME280;57052;55.602;38.096;2023-07-13T01:18:55;99379.63;;;15.59;63.02
69780;BME280;57052;55.602;38.096;2023-07-13T01:21:25;99393.25;;;15.59;63.13
69780;BME280;57052;55.602;38.096;2023-07-13T01:23:53;99380.72;;;15.58;63.08
69780;BME280;57052;55.602;38.096;2023-07-13T01:26:19;99374.16;;;15.59;63.27
69780;BME280;57052;55.602;38.096;2023-07-13T01:28:44;99371.09;;;15.61;63.11
69780;BME280;57052;55.602;38.096;2023-07-13T01:31:11;99374.00;;;15.64;63.30
69780;BME280;57052;55.602;38.096;2023-07-13T01:33:39;99367.44;;;15.65;63.27
69780;BME280;57052;55.602;38.096;2023-07-13T01:36:06;99359.53;;;15.64;63.23
69780;BME280;57052;55.602;38.096;2023-07-13T01:38:32;99361.63;;;15.67;63.24
69780;BME280;57052;55.602;38.096;2023-07-13T01:40:59;99363.09;;;15.64;63.10
69780;BME280;57052;55.602;38.096;2023-07-13T01:43:25;99368.19;;;15.66;63.05
69780;BME280;57052;55.602;38.096;2023-07-13T01:45:50;99366.91;;;15.72;63.08
69780;BME280;57052;55.602;38.096;2023-07-13T01:48:16;99363.06;;;15.73;63.11
69780;BME280;57052;55.602;38.096;2023-07-13T01:50:42;99320.88;;;15.45;63.03
69780;BME280;57052;55.602;38.096;2023-07-13T01:53:08;99368.66;;;15.76;62.99
69780;BME280;57052;55.602;38.096;2023-07-13T01:55:35;99365.00;;;15.72;63.04
69780;BME280;57052;55.602;38.096;2023-07-13T01:58:02;99367.22;;;15.79;63.21
69780;BME280;57052;55.602;38.096;2023-07-13T02:00:28;99350.72;;;15.67;63.11
69780;BME280;57052;55.602;38.096;2023-07-13T02:02:53;99369.13;;;15.78;63.09
69780;BME280;57052;55.602;38.096;2023-07-13T02:05:19;99360.34;;;15.73;63.04
69780;BME280;57052;55.602;38.096;2023-07-13T02:07:45;99369.66;;;15.80;63.09
69780;BME280;57052;55.602;38.096;2023-07-13T02:10:12;99360.97;;;15.78;62.96
69780;BME280;57052;55.602;38.096;2023-07-13T02:12:38;99357.13;;;15.79;62.97
69780;BME280;57052;55.602;38.096;2023-07-13T02:15:05;99353.09;;;15.77;62.93
69780;BME280;57052;55.602;38.096;2023-07-13T02:17:34;99347.00;;;15.80;63.24
69780;BME280;57052;55.602;38.096;2023-07-13T02:20:02;99315.41;;;15.62;62.98
69780;BME280;57052;55.602;38.096;2023-07-13T02:22:31;99361.28;;;15.85;63.09
69780;BME280;57052;55.602;38.096;2023-07-13T02:24:57;99356.94;;;15.84;63.09
69780;BME280;57052;55.602;38.096;2023-07-13T02:27:23;99355.31;;;15.83;62.99
69780;BME280;57052;55.602;38.096;2023-07-13T02:29:48;99350.66;;;15.84;63.09
69780;BME280;57052;55.602;38.096;2023-07-13T02:32:17;99339.94;;;15.79;63.07
69780;BME280;57052;55.602;38.096;2023-07-13T02:34:43;99339.28;;;15.82;63.15
69780;BME280;57052;55.602;38.096;2023-07-13T02:37:08;99347.78;;;15.89;63.03
69780;BME280;57052;55.602;38.096;2023-07-13T02:39:34;99345.38;;;15.87;63.04
69780;BME280;57052;55.602;38.096;2023-07-13T02:42:00;99319.41;;;15.73;63.07
69780;BME280;57052;55.602;38.096;2023-07-13T02:44:26;99344.91;;;15.85;63.23
69780;BME280;57052;55.602;38.096;2023-07-13T02:46:53;99330.00;;;15.74;63.28
69780;BME280;57052;55.602;38.096;2023-07-13T02:49:19;99348.41;;;15.86;63.32
69780;BME280;57052;55.602;38.096;2023-07-13T02:51:44;99346.19;;;15.88;63.24
69780;BME280;57052;55.602;38.096;2023-07-13T02:54:10;99345.50;;;15.91;63.25
69780;BME280;57052;55.602;38.096;2023-07-13T02:56:37;99342.00;;;15.90;63.36
69780;BME280;57052;55.602;38.096;2023-07-13T02:59:04;99340.56;;;15.93;63.00
69780;BME280;57052;55.602;38.096;2023-07-13T03:01:30;99337.47;;;15.94;63.16
69780;BME280;57052;55.602;38.096;2023-07-13T03:03:55;99300.97;;;15.70;63.00
69780;BME280;57052;55.602;38.096;2023-07-13T03:06:21;99332.38;;;15.84;63.17
69780;BME280;57052;55.602;38.096;2023-07-13T03:08:48;99350.31;;;15.94;63.00
69780;BME280;57052;55.602;38.096;2023-07-13T03:11:17;99343.41;;;15.96;63.12
69780;BME280;57052;55.602;38.096;2023-07-13T03:13:43;99338.28;;;15.95;63.27
69780;BME280;57052;55.602;38.096;2023-07-13T03:16:09;99319.19;;;15.86;63.22
69780;BME280;57052;55.602;38.096;2023-07-13T03:18:36;99322.09;;;15.90;63.05
69780;BME280;57052;55.602;38.096;2023-07-13T03:21:03;99336.97;;;16.01;62.97
69780;BME280;57052;55.602;38.096;2023-07-13T03:23:30;99333.13;;;16.02;63.01
69780;BME280;57052;55.602;38.096;2023-07-13T03:26:08;99342.94;;;16.03;63.60
69780;BME280;57052;55.602;38.096;2023-07-13T03:28:34;99318.56;;;15.89;63.05
69780;BME280;57052;55.602;38.096;2023-07-13T03:31:04;99347.41;;;16.08;63.10
69780;BME280;57052;55.602;38.096;2023-07-13T03:33:30;99346.59;;;16.07;63.06
69780;BME280;57052;55.602;38.096;2023-07-13T03:35:56;99336.97;;;16.01;63.04
69780;BME280;57052;55.602;38.096;2023-07-13T03:38:22;99347.06;;;16.09;63.18
69780;BME280;57052;55.602;38.096;2023-07-13T03:40:48;99351.88;;;16.12;63.23
69780;BME280;57052;55.602;38.096;2023-07-13T03:43:14;99356.88;;;16.10;63.14
69780;BME280;57052;55.602;38.096;2023-07-13T03:45:40;99355.13;;;16.06;63.37
69780;BME280;57052;55.602;38.096;2023-07-13T03:48:05;99340.84;;;16.00;63.40
69780;BME280;57052;55.602;38.096;2023-07-13T03:50:31;99357.97;;;16.09;63.16
69780;BME280;57052;55.602;38.096;2023-07-13T03:52:57;99358.94;;;16.13;63.32
69780;BME280;57052;55.602;38.096;2023-07-13T03:55:24;99352.50;;;16.18;63.31
69780;BME280;57052;55.602;38.096;2023-07-13T03:57:57;99355.22;;;16.18;63.39
69780;BME280;57052;55.602;38.096;2023-07-13T04:00:23;99351.84;;;16.21;63.33
69780;BME280;57052;55.602;38.096;2023-07-13T04:02:49;99352.63;;;16.21;63.12
69780;BME280;57052;55.602;38.096;2023-07-13T04:05:15;99346.88;;;16.14;63.20
69780;BME280;57052;55.602;38.096;2023-07-13T04:07:41;99353.50;;;16.13;63.45
69780;BME280;57052;55.602;38.096;2023-07-13T04:10:07;99353.97;;;16.15;63.28
69780;BME280;57052;55.602;38.096;2023-07-13T04:12:33;99361.00;;;16.16;63.35
69780;BME280;57052;55.602;38.096;2023-07-13T04:14:58;99354.25;;;16.14;63.31
69780;BME280;57052;55.602;38.096;2023-07-13T04:17:24;99352.22;;;16.11;63.47
69780;BME280;57052;55.602;38.096;2023-07-13T04:19:50;99359.41;;;16.15;63.51
69780;BME280;57052;55.602;38.096;2023-07-13T04:22:15;99349.31;;;16.16;63.31
69780;BME280;57052;55.602;38.096;2023-07-13T04:24:41;99351.03;;;16.20;63.48
69780;BME280;57052;55.602;38.096;2023-07-13T04:27:07;99348.59;;;16.27;63.27
69780;BME280;57052;55.602;38.096;2023-07-13T04:29:33;99348.13;;;16.25;63.38
69780;BME280;57052;55.602;38.096;2023-07-13T04:31:58;99356.28;;;16.34;63.31
69780;BME280;57052;55.602;38.096;2023-07-13T04:34:24;99351.94;;;16.33;63.52
69780;BME280;57052;55.602;38.096;2023-07-13T04:36:50;99352.53;;;16.38;63.41
69780;BME280;57052;55.602;38.096;2023-07-13T04:39:16;99348.16;;;16.46;63.29
69780;BME280;57052;55.602;38.096;2023-07-13T04:41:41;99356.97;;;16.51;63.03
69780;BME280;57052;55.602;38.096;2023-07-13T04:44:07;99357.97;;;16.55;63.08
69780;BME280;57052;55.602;38.096;2023-07-13T04:46:33;99327.50;;;16.36;63.02
69780;BME280;57052;55.602;38.096;2023-07-13T04:48:59;99360.19;;;16.62;62.63
69780;BME280;57052;55.602;38.096;2023-07-13T04:51:25;99339.66;;;16.47;62.96
69780;BME280;57052;55.602;38.096;2023-07-13T04:53:52;99328.31;;;16.37;63.10
69780;BME280;57052;55.602;38.096;2023-07-13T04:56:17;99352.34;;;16.52;62.94
69780;BME280;57052;55.602;38.096;2023-07-13T04:58:45;99340.44;;;16.56;63.19
69780;BME280;57052;55.602;38.096;2023-07-13T05:01:11;99356.63;;;16.61;63.10
69780;BME280;57052;55.602;38.096;2023-07-13T05:03:36;99348.25;;;16.66;62.95
69780;BME280;57052;55.602;38.096;2023-07-13T05:06:07;99349.22;;;16.71;63.52
69780;BME280;57052;55.602;38.096;2023-07-13T05:08:35;99347.41;;;16.75;62.77
69780;BME280;57052;55.602;38.096;2023-07-13T05:11:03;99336.66;;;16.70;62.78
69780;BME280;57052;55.602;38.096;2023-07-13T05:13:29;99347.56;;;16.78;62.63
69780;BME280;57052;55.602;38.096;2023-07-13T05:16:00;99351.22;;;16.82;62.88
69780;BME280;57052;55.602;38.096;2023-07-13T05:18:27;99340.13;;;16.79;62.64
69780;BME280;57052;55.602;38.096;2023-07-13T05:21:07;99361.81;;;16.84;62.95
69780;BME280;57052;55.602;38.096;2023-07-13T05:23:34;99343.34;;;16.81;62.42
69780;BME280;57052;55.602;38.096;2023-07-13T05:26:01;99362.41;;;16.89;62.28
69780;BME280;57052;55.602;38.096;2023-07-13T05:28:28;99358.56;;;16.90;62.41
69780;BME280;57052;55.602;38.096;2023-07-13T05:30:54;99359.41;;;16.82;62.58
69780;BME280;57052;55.602;38.096;2023-07-13T05:33:20;99365.69;;;16.83;62.55
69780;BME280;57052;55.602;38.096;2023-07-13T05:35:46;99356.81;;;16.86;62.59
69780;BME280;57052;55.602;38.096;2023-07-13T05:38:11;99362.28;;;16.86;62.64
69780;BME280;57052;55.602;38.096;2023-07-13T05:40:37;99357.91;;;16.93;62.43
69780;BME280;57052;55.602;38.096;2023-07-13T05:43:03;99343.09;;;16.94;62.51
69780;BME280;57052;55.602;38.096;2023-07-13T05:45:29;99352.97;;;17.07;62.26
69780;BME280;57052;55.602;38.096;2023-07-13T05:47:54;99339.94;;;17.04;62.16
69780;BME280;57052;55.602;38.096;2023-07-13T05:50:20;99361.84;;;17.25;62.13
69780;BME280;57052;55.602;38.096;2023-07-13T05:52:46;99335.50;;;17.20;61.93
69780;BME280;57052;55.602;38.096;2023-07-13T05:55:12;99343.41;;;17.34;61.83
69780;BME280;57052;55.602;38.096;2023-07-13T05:57:38;99340.13;;;17.41;61.65
69780;BME280;57052;55.602;38.096;2023-07-13T06:00:04;99350.06;;;17.45;61.56
69780;BME280;57052;55.602;38.096;2023-07-13T06:02:31;99335.59;;;17.45;61.33
69780;BME280;57052;55.602;38.096;2023-07-13T06:04:57;99350.66;;;17.51;61.38
69780;BME280;57052;55.602;38.096;2023-07-13T06:07:22;99352.91;;;17.49;61.22
69780;BME280;57052;55.602;38.096;2023-07-13T06:09:48;99334.47;;;17.46;61.09
69780;BME280;57052;55.602;38.096;2023-07-13T06:12:14;99345.34;;;17.54;61.37
69780;BME280;57052;55.602;38.096;2023-07-13T06:14:39;99344.66;;;17.57;61.22
69780;BME280;57052;55.602;38.096;2023-07-13T06:17:05;99327.56;;;17.60;60.95
69780;BME280;57052;55.602;38.096;2023-07-13T06:19:31;99338.19;;;17.74;60.74
69780;BME280;57052;55.602;38.096;2023-07-13T06:21:57;99342.94;;;17.85;60.70
69780;BME280;57052;55.602;38.096;2023-07-13T06:24:24;99346.81;;;17.97;60.37
69780;BME280;57052;55.602;38.096;2023-07-13T06:26:50;99335.19;;;18.00;60.44
69780;BME280;57052;55.602;38.096;2023-07-13T06:29:15;99338.59;;;18.09;60.37
69780;BME280;57052;55.602;38.096;2023-07-13T06:31:41;99337.03;;;18.20;60.14
69780;BME280;57052;55.602;38.096;2023-07-13T06:34:07;99345.63;;;18.30;59.82
69780;BME280;57052;55.602;38.096;2023-07-13T06:36:33;99308.50;;;18.21;59.85
69780;BME280;57052;55.602;38.096;2023-07-13T06:38:59;99326.88;;;18.44;59.52
69780;BME280;57052;55.602;38.096;2023-07-13T06:41:24;99329.09;;;18.51;58.87
69780;BME280;57052;55.602;38.096;2023-07-13T06:43:53;99325.41;;;18.59;58.84
69780;BME280;57052;55.602;38.096;2023-07-13T06:46:22;99312.97;;;18.62;58.91
69780;BME280;57052;55.602;38.096;2023-07-13T06:48:48;99322.44;;;18.76;58.76
69780;BME280;57052;55.602;38.096;2023-07-13T06:51:14;99281.22;;;18.61;58.74
69780;BME280;57052;55.602;38.096;2023-07-13T06:53:40;99310.88;;;18.83;58.46
69780;BME280;57052;55.602;38.096;2023-07-13T06:56:06;99318.88;;;18.88;57.91
69780;BME280;57052;55.602;38.096;2023-07-13T06:58:33;99302.78;;;18.74;57.72
69780;BME280;57052;55.602;38.096;2023-07-13T07:00:59;99313.97;;;18.81;57.53
69780;BME280;57052;55.602;38.096;2023-07-13T07:03:25;99315.47;;;18.79;57.69
69780;BME280;57052;55.602;38.096;2023-07-13T07:05:51;99312.38;;;18.80;57.56
69780;BME280;57052;55.602;38.096;2023-07-13T07:08:17;99302.78;;;18.74;57.46
69780;BME280;57052;55.602;38.096;2023-07-13T07:10:42;99319.91;;;18.83;57.26
69780;BME280;57052;55.602;38.096;2023-07-13T07:13:08;99310.06;;;18.82;57.13
69780;BME280;57052;55.602;38.096;2023-07-13T07:15:35;99310.66;;;18.76;57.10
69780;BME280;57052;55.602;38.096;2023-07-13T07:18:00;99324.13;;;18.81;57.04
69780;BME280;57052;55.602;38.096;2023-07-13T07:20:26;99315.91;;;18.81;56.97
69780;BME280;57052;55.602;38.096;2023-07-13T07:22:52;99331.09;;;18.90;56.90
69780;BME280;57052;55.602;38.096;2023-07-13T07:25:19;99327.09;;;18.88;56.79
69780;BME280;57052;55.602;38.096;2023-07-13T07:27:45;99336.13;;;18.88;56.69
69780;BME280;57052;55.602;38.096;2023-07-13T07:30:12;99344.78;;;18.90;56.46
69780;BME280;57052;55.602;38.096;2023-07-13T07:32:38;99344.59;;;18.83;56.55
69780;BME280;57052;55.602;38.096;2023-07-13T07:35:04;99350.88;;;18.84;56.33
69780;BME280;57052;55.602;38.096;2023-07-13T07:37:30;99350.41;;;18.82;56.78
69780;BME280;57052;55.602;38.096;2023-07-13T07:39:55;99344.91;;;18.82;57.04
69780;BME280;57052;55.602;38.096;2023-07-13T07:42:21;99347.81;;;18.73;57.26
69780;BME280;57052;55.602;38.096;2023-07-13T07:44:47;99344.03;;;18.66;57.65
69780;BME280;57052;55.602;38.096;2023-07-13T07:47:12;99311.47;;;18.40;58.22
69780;BME280;57052;55.602;38.096;2023-07-13T07:49:38;99346.09;;;18.56;58.94
69780;BME280;57052;55.602;38.096;2023-07-13T07:52:04;99333.78;;;18.50;58.92
69780;BME280;57052;55.602;38.096;2023-07-13T07:54:30;99338.09;;;18.51;59.42
69780;BME280;57052;55.602;38.096;2023-07-13T07:56:56;99342.78;;;18.51;59.71
69780;BME280;57052;55.602;38.096;2023-07-13T07:59:21;99349.41;;;18.50;59.85
69780;BME280;57052;55.602;38.096;2023-07-13T08:01:47;99327.09;;;18.39;60.04
69780;BME280;57052;55.602;38.096;2023-07-13T08:04:16;99347.13;;;18.52;60.53
69780;BME280;57052;55.602;38.096;2023-07-13T08:06:42;99340.06;;;18.51;60.44
69780;BME280;57052;55.602;38.096;2023-07-13T08:09:07;99358.22;;;18.55;60.26
69780;BME280;57052;55.602;38.096;2023-07-13T08:11:34;99342.09;;;18.54;60.03
69780;BME280;57052;55.602;38.096;2023-07-13T08:13:59;99337.84;;;18.56;60.11
69780;BME280;57052;55.602;38.096;2023-07-13T08:16:25;99333.09;;;18.53;60.00
69780;BME280;57052;55.602;38.096;2023-07-13T08:18:51;99336.38;;;18.59;60.05
69780;BME280;57052;55.602;38.096;2023-07-13T08:21:17;99319.69;;;18.40;59.95
69780;BME280;57052;55.602;38.096;2023-07-13T08:23:45;99345.75;;;18.58;59.93
69780;BME280;57052;55.602;38.096;2023-07-13T08:26:11;99345.88;;;18.49;59.63
69780;BME280;57052;55.602;38.096;2023-07-13T08:28:36;99348.28;;;18.51;59.87
69780;BME280;57052;55.602;38.096;2023-07-13T08:31:03;99341.16;;;18.38;60.03
69780;BME280;57052;55.602;38.096;2023-07-13T08:33:30;99340.34;;;18.37;60.21
69780;BME280;57052;55.602;38.096;2023-07-13T08:35:56;99357.38;;;18.43;60.49
69780;BME280;57052;55.602;38.096;2023-07-13T08:38:22;99356.78;;;18.37;60.61
69780;BME280;57052;55.602;38.096;2023-07-13T08:40:56;99351.09;;;18.30;61.39
69780;BME280;57052;55.602;38.096;2023-07-13T08:43:28;99358.16;;;18.31;61.58
69780;BME280;57052;55.602;38.096;2023-07-13T08:46:05;99348.91;;;18.24;60.93
69780;BME280;57052;55.602;38.096;2023-07-13T08:48:44;99349.34;;;18.14;60.59
69780;BME280;57052;55.602;38.096;2023-07-13T08:51:41;99346.50;;;18.10;61.83
69780;BME280;57052;55.602;38.096;2023-07-13T08:54:26;99335.09;;;17.96;61.72
69780;BME280;57052;55.602;38.096;2023-07-13T08:56:53;99340.91;;;18.07;61.91
69780;BME280;57052;55.602;38.096;2023-07-13T08:59:24;99334.97;;;18.05;63.28
69780;BME280;57052;55.602;38.096;2023-07-13T09:04:45;99340.00;;;18.15;63.04
69780;BME280;57052;55.602;38.096;2023-07-13T09:07:16;99350.06;;;18.23;62.30
69780;BME280;57052;55.602;38.096;2023-07-13T09:10:02;99346.66;;;18.26;62.33
69780;BME280;57052;55.602;38.096;2023-07-13T09:15:41;99360.56;;;18.21;62.72
69780;BME280;57052;55.602;38.096;2023-07-13T09:18:14;99356.66;;;18.22;61.71
69780;BME280;57052;55.602;38.096;2023-07-13T09:20:48;99344.91;;;18.21;61.13
69780;BME280;57052;55.602;38.096;2023-07-13T09:23:17;99332.38;;;18.20;61.71
69780;BME280;57052;55.602;38.096;2023-07-13T09:25:47;99342.97;;;18.22;61.28
69780;BME280;57052;55.602;38.096;2023-07-13T09:28:27;99359.75;;;18.32;61.48
69780;BME280;57052;55.602;38.096;2023-07-13T09:31:29;99369.13;;;18.31;61.96
69780;BME280;57052;55.602;38.096;2023-07-13T09:33:59;99357.94;;;18.36;61.01
69780;BME280;57052;55.602;38.096;2023-07-13T09:36:28;99352.81;;;18.35;61.33
69780;BME280;57052;55.602;38.096;2023-07-13T09:39:02;99365.47;;;18.39;60.77
69780;BME280;57052;55.602;38.096;2023-07-13T09:41:49;99370.94;;;18.39;60.20
69780;BME280;57052;55.602;38.096;2023-07-13T09:44:26;99378.63;;;18.46;60.24
69780;BME280;57052;55.602;38.096;2023-07-13T09:46:56;99364.00;;;18.42;60.19
69780;BME280;57052;55.602;38.096;2023-07-13T09:49:33;99376.13;;;18.53;60.30
69780;BME280;57052;55.602;38.096;2023-07-13T09:52:04;99369.75;;;18.61;60.88
69780;BME280;57052;55.602;38.096;2023-07-13T09:54:33;99372.81;;;18.47;60.21
69780;BME280;57052;55.602;38.096;2023-07-13T09:57:00;99376.81;;;18.50;60.59
69780;BME280;57052;55.602;38.096;2023-07-13T09:59:30;99360.94;;;18.43;60.39
69780;BME280;57052;55.602;38.096;2023-07-13T10:01:56;99381.25;;;18.54;60.69
69780;BME280;57052;55.602;38.096;2023-07-13T10:04:33;99363.53;;;18.40;61.63
69780;BME280;57052;55.602;38.096;2023-07-13T10:07:11;99373.38;;;18.41;62.38
69780;BME280;57052;55.602;38.096;2023-07-13T10:09:38;99376.78;;;18.38;61.60
69780;BME280;57052;55.602;38.096;2023-07-13T10:12:15;99371.53;;;18.33;62.15
69780;BME280;57052;55.602;38.096;2023-07-13T10:14:41;99379.53;;;18.26;61.63
69780;BME280;57052;55.602;38.096;2023-07-13T10:17:13;99381.09;;;18.15;61.76
69780;BME280;57052;55.602;38.096;2023-07-13T10:19:41;99373.31;;;18.17;61.86
69780;BME280;57052;55.602;38.096;2023-07-13T10:22:28;99363.75;;;18.11;62.89
69780;BME280;57052;55.602;38.096;2023-07-13T10:24:57;99372.53;;;18.16;62.28
69780;BME280;57052;55.602;38.096;2023-07-13T10:27:35;99377.53;;;18.14;62.95
69780;BME280;57052;55.602;38.096;2023-07-13T10:30:09;99376.28;;;18.12;62.72
69780;BME280;57052;55.602;38.096;2023-07-13T10:32:37;99389.75;;;18.17;62.52
69780;BME280;57052;55.602;38.096;2023-07-13T10:35:03;99379.38;;;18.10;62.84
69780;BME280;57052;55.602;38.096;2023-07-13T10:37:54;99375.81;;;17.98;64.15
69780;BME280;57052;55.602;38.096;2023-07-13T10:40:28;99389.28;;;18.03;63.31
69780;BME280;57052;55.602;38.096;2023-07-13T10:42:57;99389.63;;;18.01;63.45
69780;BME280;57052;55.602;38.096;2023-07-13T10:45:25;99339.19;;;17.57;63.50
69780;BME280;57052;55.602;38.096;2023-07-13T10:47:53;99396.06;;;17.84;63.73
69780;BME280;57052;55.602;38.096;2023-07-13T10:50:26;99385.16;;;17.64;64.58
69780;BME280;57052;55.602;38.096;2023-07-13T10:53:18;99402.50;;;17.47;65.84
69780;BME280;57052;55.602;38.096;2023-07-13T10:58:28;99377.38;;;17.33;65.30
69780;BME280;57052;55.602;38.096;2023-07-13T11:01:09;99407.47;;;17.33;66.59
69780;BME280;57052;55.602;38.096;2023-07-13T11:11:36;99420.31;;;17.12;67.09
69780;BME280;57052;55.602;38.096;2023-07-13T11:14:08;99381.56;;;16.89;66.30
69780;BME280;57052;55.602;38.096;2023-07-13T11:16:50;99414.94;;;17.03;66.46
69780;BME280;57052;55.602;38.096;2023-07-13T11:24:30;99418.50;;;16.95;67.10
69780;BME280;57052;55.602;38.096;2023-07-13T11:27:27;99413.75;;;16.84;68.08
69780;BME280;57052;55.602;38.096;2023-07-13T11:30:22;99409.72;;;16.81;68.53
69780;BME280;57052;55.602;38.096;2023-07-13T11:33:03;99400.25;;;16.79;68.67
69780;BME280;57052;55.602;38.096;2023-07-13T11:35:37;99412.44;;;16.60;68.45
69780;BME280;57052;55.602;38.096;2023-07-13T11:38:16;99397.81;;;16.56;69.24
69780;BME280;57052;55.602;38.096;2023-07-13T11:40:45;99413.38;;;16.64;68.19
69780;BME280;57052;55.602;38.096;2023-07-13T11:43:14;99408.56;;;16.61;69.02
69780;BME280;57052;55.602;38.096;2023-07-13T11:45:41;99406.28;;;16.63;68.68
69780;BME280;57052;55.602;38.096;2023-07-13T11:48:29;99418.19;;;16.67;69.43
69780;BME280;57052;55.602;38.096;2023-07-13T11:51:03;99413.38;;;16.64;68.48
69780;BME280;57052;55.602;38.096;2023-07-13T11:53:38;99408.91;;;16.60;69.17
69780;BME280;57052;55.602;38.096;2023-07-13T11:56:05;99406.00;;;16.56;68.93
69780;BME280;57052;55.602;38.096;2023-07-13T11:58:32;99408.09;;;16.59;69.46
69780;BME280;57052;55.602;38.096;2023-07-13T12:01:00;99406.63;;;16.62;69.71
69780;BME280;57052;55.602;38.096;2023-07-13T12:03:32;99414.03;;;16.61;69.69
69780;BME280;57052;55.602;38.096;2023-07-13T12:06:01;99401.63;;;16.64;70.00
69780;BME280;57052;55.602;38.096;2023-07-13T12:08:28;99407.25;;;16.67;69.68
69780;BME280;57052;55.602;38.096;2023-07-13T12:11:00;99404.19;;;16.69;70.57
69780;BME280;57052;55.602;38.096;2023-07-13T12:13:35;99400.97;;;16.67;70.13
69780;BME280;57052;55.602;38.096;2023-07-13T12:16:01;99395.53;;;16.58;69.21
69780;BME280;57052;55.602;38.096;2023-07-13T12:18:31;99400.22;;;16.58;69.63
69780;BME280;57052;55.602;38.096;2023-07-13T12:20:59;99386.28;;;16.42;69.30
69780;BME280;57052;55.602;38.096;2023-07-13T12:23:27;99395.22;;;16.51;69.37
69780;BME280;57052;55.602;38.096;2023-07-13T12:25:54;99396.88;;;16.52;69.49
69780;BME280;57052;55.602;38.096;2023-07-13T12:28:44;99390.91;;;16.50;71.54
69780;BME280;57052;55.602;38.096;2023-07-13T12:34:18;99384.81;;;16.45;70.60
69780;BME280;57052;55.602;38.096;2023-07-13T12:36:58;99392.84;;;16.50;71.87
69780;BME280;57052;55.602;38.096;2023-07-13T12:41:54;99382.56;;;16.55;70.32
69780;BME280;57052;55.602;38.096;2023-07-13T12:44:30;99388.03;;;16.55;71.57
69780;BME280;57052;55.602;38.096;2023-07-13T12:47:03;99381.75;;;16.55;70.52
69780;BME280;57052;55.602;38.096;2023-07-13T12:49:32;99385.31;;;16.55;70.79
69780;BME280;57052;55.602;38.096;2023-07-13T12:52:02;99388.34;;;16.54;71.21
69780;BME280;57052;55.602;38.096;2023-07-13T12:54:29;99394.78;;;16.58;71.09
69780;BME280;57052;55.602;38.096;2023-07-13T12:56:57;99390.22;;;16.62;71.20
69780;BME280;57052;55.602;38.096;2023-07-13T12:59:26;99379.69;;;16.52;71.41
69780;BME280;57052;55.602;38.096;2023-07-13T13:01:55;99385.44;;;16.50;71.40
69780;BME280;57052;55.602;38.096;2023-07-13T13:04:21;99385.31;;;16.55;71.58
69780;BME280;57052;55.602;38.096;2023-07-13T13:06:47;99386.88;;;16.56;71.63
69780;BME280;57052;55.602;38.096;2023-07-13T13:09:15;99385.09;;;16.60;71.77
69780;BME280;57052;55.602;38.096;2023-07-13T13:11:42;99382.69;;;16.59;71.52
69780;BME280;57052;55.602;38.096;2023-07-13T13:14:08;99387.66;;;16.65;71.97
69780;BME280;57052;55.602;38.096;2023-07-13T13:16:39;99393.63;;;16.59;72.00
69780;BME280;57052;55.602;38.096;2023-07-13T13:19:18;99385.69;;;16.66;72.45
69780;BME280;57052;55.602;38.096;2023-07-13T13:21:46;99357.44;;;16.62;72.06
69780;BME280;57052;55.602;38.096;2023-07-13T13:24:13;99374.28;;;16.73;72.31
69780;BME280;57052;55.602;38.096;2023-07-13T13:26:40;99359.19;;;16.66;72.04